Time;durP1;ratioP1;P1;durP2;ratioP2;P2;SDS_P1;SDS_P2;PMS_P1;PMS_P2;Temp;Humidity;BMP_temperature;BMP_pressure;BME280_temperature;BME280_humidity;BME280_pressure;Samples;Min_cycle;Max_cycle;Signal;HPM_P1;HPM_P2
2022/03/12 00:01:06;;;;;;;7.15;4.95;;;;;;;;;;10335060;28;20222;-76
2022/03/12 00:06:09;;;;;;;6.97;4.70;;;;;;;;;;10340100;28;20294;-76
2022/03/12 00:11:11;;;;;;;5.38;4.40;;;;;;;;;;10335746;28;20236;-77
2022/03/12 00:16:22;;;;;;;4.97;4.43;;;;;;;;;;10343437;28;20208;-76
2022/03/12 00:21:27;;;;;;;4.75;3.67;;;;;;;;;;10348382;28;20220;-77
2022/03/12 00:26:29;;;;;;;8.68;4.68;;;;;;;;;;10347103;28;20209;-77
2022/03/12 00:31:30;;;;;;;5.50;4.45;;;;;;;;;;10345608;28;20748;-76
2022/03/12 00:36:31;;;;;;;7.80;4.88;;;;;;;;;;10343893;28;20204;-77
2022/03/12 00:41:32;;;;;;;4.93;4.43;;;;;;;;;;10341791;28;20733;-77
2022/03/12 00:46:33;;;;;;;4.38;3.00;;;;;;;;;;10375287;28;20215;-77
2022/03/12 00:51:38;;;;;;;5.13;4.63;;;;;;;;;;10372411;28;20214;-76
2022/03/12 00:56:39;;;;;;;9.02;4.85;;;;;;;;;;10343101;28;20300;-77
2022/03/12 01:01:41;;;;;;;8.45;5.25;;;;;;;;;;10343050;28;20234;-77
2022/03/12 01:06:42;;;;;;;7.63;4.07;;;;;;;;;;10345522;28;20204;-76
2022/03/12 01:11:43;;;;;;;6.47;4.65;;;;;;;;;;10339708;28;20192;-77
2022/03/12 01:16:44;;;;;;;3.55;3.25;;;;;;;;;;10341844;28;20307;-77
2022/03/12 01:21:45;;;;;;;10.00;4.90;;;;;;;;;;10339574;28;20219;-77
2022/03/12 01:26:46;;;;;;;10.02;5.47;;;;;;;;;;10372988;28;20201;-75
2022/03/12 01:31:47;;;;;;;5.10;3.63;;;;;;;;;;10340653;28;20756;-75
2022/03/12 01:36:50;;;;;;;7.32;5.00;;;;;;;;;;10343170;28;20189;-76
2022/03/12 01:41:52;;;;;;;8.60;5.25;;;;;;;;;;10342544;28;20671;-77
2022/03/12 01:46:53;;;;;;;7.20;4.90;;;;;;;;;;10343931;28;20238;-76
2022/03/12 01:51:55;;;;;;;9.10;4.97;;;;;;;;;;10346601;28;20204;-77
2022/03/12 01:56:59;;;;;;;7.75;5.57;;;;;;;;;;10347443;28;20279;-77
2022/03/12 02:02:01;;;;;;;5.97;5.38;;;;;;;;;;10366562;28;20227;-76
2022/03/12 02:07:02;;;;;;;5.70;4.60;;;;;;;;;;10341208;28;20268;-76
2022/03/12 02:12:03;;;;;;;4.20;3.90;;;;;;;;;;10340619;28;20222;-77
2022/03/12 02:17:08;;;;;;;6.43;4.32;;;;;;;;;;10337568;28;20209;-77
2022/03/12 02:22:10;;;;;;;7.32;3.90;;;;;;;;;;10337367;28;20229;-77
2022/03/12 02:27:12;;;;;;;6.95;4.18;;;;;;;;;;10343119;28;20197;-77
2022/03/12 02:32:15;;;;;;;7.00;4.30;;;;;;;;;;10335987;28;20266;-76
2022/03/12 02:37:26;;;;;;;4.38;3.60;;;;;;;;;;10337737;28;20197;-76
2022/03/12 02:42:28;;;;;;;5.00;4.50;;;;;;;;;;10338311;28;20233;-76
2022/03/12 02:47:33;;;;;;;6.32;4.30;;;;;;;;;;10338905;28;20275;-76
2022/03/12 02:52:40;;;;;;;5.60;4.00;;;;;;;;;;10339902;28;20746;-77
2022/03/12 02:57:42;;;;;;;4.85;4.28;;;;;;;;;;10340943;28;20580;-76
2022/03/12 03:02:48;;;;;;;4.57;3.97;;;;;;;;;;10334274;28;20310;-76
2022/03/12 03:07:55;;;;;;;4.22;3.83;;;;;;;;;;10336401;28;20205;-77
2022/03/12 03:12:58;;;;;;;5.50;4.10;;;;;;;;;;10335872;28;20551;-77
2022/03/12 03:18:10;;;;;;;4.93;4.18;;;;;;;;;;10335891;28;20216;-77
2022/03/12 03:23:11;;;;;;;10.18;4.75;;;;;;;;;;10337276;28;20737;-77
2022/03/12 03:28:12;;;;;;;5.93;4.03;;;;;;;;;;10336797;28;20199;-76
2022/03/12 03:33:18;;;;;;;6.55;4.47;;;;;;;;;;10335689;28;20801;-76
2022/03/12 03:38:19;;;;;;;6.10;4.90;;;;;;;;;;10337081;28;20229;-76
2022/03/12 03:43:22;;;;;;;5.18;4.30;;;;;;;;;;10335803;28;20217;-75
2022/03/12 03:48:24;;;;;;;5.57;4.90;;;;;;;;;;10338254;28;20290;-75
2022/03/12 03:53:26;;;;;;;5.07;4.57;;;;;;;;;;10335636;28;20312;-75
2022/03/12 03:58:28;;;;;;;5.67;4.50;;;;;;;;;;10335689;28;20562;-75
2022/03/12 04:03:37;;;;;;;6.77;3.73;;;;;;;;;;10330721;28;20979;-75
2022/03/12 04:08:38;;;;;;;6.00;5.03;;;;;;;;;;10327834;28;20306;-75
2022/03/12 04:13:39;;;;;;;5.53;3.70;;;;;;;;;;10365852;28;20723;-75
2022/03/12 04:18:43;;;;;;;6.70;4.37;;;;;;;;;;10363020;28;20291;-75
2022/03/12 04:23:45;;;;;;;6.80;4.57;;;;;;;;;;10355970;28;20208;-75
2022/03/12 04:28:46;;;;;;;6.10;4.23;;;;;;;;;;10330411;28;20246;-74
2022/03/12 04:33:48;;;;;;;6.00;4.33;;;;;;;;;;10334883;28;20232;-74
2022/03/12 04:38:49;;;;;;;5.07;3.93;;;;;;;;;;10332320;28;20702;-74
2022/03/12 04:43:51;;;;;;;6.25;4.72;;;;;;;;;;10366565;28;20212;-74
2022/03/12 04:48:52;;;;;;;6.20;3.87;;;;;;;;;;10333890;28;20232;-74
2022/03/12 04:53:57;;;;;;;8.02;4.43;;;;;;;;;;10331998;28;20295;-75
2022/03/12 04:58:58;;;;;;;4.60;3.63;;;;;;;;;;10331408;28;20666;-75
2022/03/12 05:03:59;;;;;;;6.07;3.17;;;;;;;;;;10341105;28;20298;-74
2022/03/12 05:09:05;;;;;;;4.27;3.37;;;;;;;;;;10333369;28;20247;-74
2022/03/12 05:14:06;;;;;;;5.45;4.03;;;;;;;;;;10333607;28;20207;-76
2022/03/12 05:19:07;;;;;;;7.00;4.05;;;;;;;;;;10338825;28;20220;-76
2022/03/12 05:24:10;;;;;;;5.43;3.88;;;;;;;;;;10344915;28;20310;-76
2022/03/12 05:29:11;;;;;;;9.43;3.80;;;;;;;;;;10342954;28;20581;-76
2022/03/12 05:34:12;;;;;;;7.80;5.00;;;;;;;;;;10341121;28;20222;-76
2022/03/12 05:39:15;;;;;;;5.27;3.73;;;;;;;;;;10342795;28;20225;-75
2022/03/12 05:44:17;;;;;;;4.97;4.40;;;;;;;;;;10331716;28;20688;-76
2022/03/12 05:49:19;;;;;;;6.03;4.30;;;;;;;;;;10332679;28;20204;-75
2022/03/12 05:54:20;;;;;;;6.50;4.05;;;;;;;;;;10339560;28;20259;-76
2022/03/12 05:59:21;;;;;;;4.33;3.90;;;;;;;;;;10338010;28;20238;-75
2022/03/12 06:04:29;;;;;;;5.33;4.43;;;;;;;;;;10336073;28;20224;-75
2022/03/12 06:09:30;;;;;;;7.33;4.90;;;;;;;;;;10339581;28;20255;-76
2022/03/12 06:14:31;;;;;;;6.77;4.87;;;;;;;;;;10337312;28;20857;-75
2022/03/12 06:19:32;;;;;;;5.93;4.20;;;;;;;;;;10334117;28;20192;-75
2022/03/12 06:24:33;;;;;;;5.07;4.20;;;;;;;;;;10335643;28;20219;-73
2022/03/12 06:29:35;;;;;;;7.50;3.90;;;;;;;;;;10335964;28;20230;-73
2022/03/12 06:34:36;;;;;;;5.47;4.10;;;;;;;;;;10336880;28;20928;-73
2022/03/12 06:39:37;;;;;;;4.50;3.40;;;;;;;;;;10332860;28;20243;-73
2022/03/12 06:44:40;;;;;;;6.00;3.83;;;;;;;;;;10330395;28;20201;-76
2022/03/12 06:49:41;;;;;;;2.30;2.10;;;;;;;;;;10329628;28;20232;-73
2022/03/12 06:54:42;;;;;;;4.27;3.87;;;;;;;;;;10337241;28;20690;-74
2022/03/12 06:59:43;;;;;;;4.97;3.50;;;;;;;;;;10337280;28;20216;-74
2022/03/12 07:04:44;;;;;;;4.47;3.20;;;;;;;;;;10333130;28;20328;-74
2022/03/12 07:09:46;;;;;;;5.43;3.93;;;;;;;;;;10338002;28;20224;-73
2022/03/12 07:14:47;;;;;;;4.27;3.70;;;;;;;;;;10338522;28;20814;-73
2022/03/12 07:19:50;;;;;;;3.90;3.53;;;;;;;;;;10332789;28;20212;-76
2022/03/12 07:24:51;;;;;;;2.55;2.10;;;;;;;;;;10340196;28;20224;-74
2022/03/12 07:29:53;;;;;;;2.28;2.03;;;;;;;;;;10342620;28;20200;-75
2022/03/12 07:34:54;;;;;;;2.80;2.60;;;;;;;;;;10369284;28;20224;-76
2022/03/12 07:39:55;;;;;;;5.10;3.30;;;;;;;;;;10338257;28;20227;-74
2022/03/12 07:44:57;;;;;;;4.30;3.03;;;;;;;;;;10332807;28;20204;-76
2022/03/12 07:49:58;;;;;;;3.47;2.53;;;;;;;;;;10337316;28;20203;-76
2022/03/12 07:54:59;;;;;;;3.47;3.17;;;;;;;;;;10340103;28;20692;-76
2022/03/12 08:00:00;;;;;;;3.95;3.47;;;;;;;;;;10361591;28;20188;-75
2022/03/12 08:05:01;;;;;;;5.38;3.38;;;;;;;;;;10336827;28;20220;-77
2022/03/12 08:10:02;;;;;;;3.42;2.85;;;;;;;;;;10338237;28;20250;-76
2022/03/12 08:15:05;;;;;;;7.80;3.83;;;;;;;;;;10340238;28;20204;-78
2022/03/12 08:20:08;;;;;;;4.15;3.75;;;;;;;;;;10334961;28;20244;-78
2022/03/12 08:25:09;;;;;;;2.75;2.55;;;;;;;;;;10330836;28;20596;-74
2022/03/12 08:30:11;;;;;;;2.92;2.72;;;;;;;;;;10326442;28;20278;-77
2022/03/12 08:35:13;;;;;;;5.70;3.28;;;;;;;;;;10334518;28;20294;-77
2022/03/12 08:40:14;;;;;;;7.35;2.50;;;;;;;;;;10342544;28;20298;-76
2022/03/12 08:45:16;;;;;;;4.20;3.17;;;;;;;;;;10335795;28;20208;-77
2022/03/12 08:50:17;;;;;;;2.75;2.53;;;;;;;;;;10344050;28;20308;-76
2022/03/12 08:55:18;;;;;;;3.67;2.72;;;;;;;;;;10347315;28;20196;-77
2022/03/12 09:00:20;;;;;;;5.03;2.78;;;;;;;;;;10348632;28;20212;-80
2022/03/12 09:05:21;;;;;;;2.63;2.42;;;;;;;;;;10347940;28;20206;-80
2022/03/12 09:10:23;;;;;;;5.13;2.97;;;;;;;;;;10341295;28;20197;-80
2022/03/12 09:15:24;;;;;;;2.95;2.55;;;;;;;;;;10339926;28;20580;-78
2022/03/12 09:20:25;;;;;;;2.95;2.75;;;;;;;;;;10334539;28;20215;-80
2022/03/12 09:25:28;;;;;;;3.55;2.97;;;;;;;;;;10342349;28;20756;-81
2022/03/12 09:30:29;;;;;;;3.15;2.97;;;;;;;;;;10344706;28;20536;-80
2022/03/12 09:35:31;;;;;;;3.30;2.97;;;;;;;;;;10380153;28;20196;-81
2022/03/12 09:40:32;;;;;;;3.33;3.03;;;;;;;;;;10371235;28;20232;-82
2022/03/12 09:45:34;;;;;;;2.75;2.55;;;;;;;;;;10370925;28;20206;-80
2022/03/12 09:50:35;;;;;;;2.15;2.05;;;;;;;;;;10348879;28;20264;-82
2022/03/12 09:55:37;;;;;;;3.05;2.33;;;;;;;;;;10380443;28;20199;-82
2022/03/12 10:00:39;;;;;;;3.85;2.47;;;;;;;;;;10348826;28;20335;-82
2022/03/12 10:05:40;;;;;;;2.50;2.30;;;;;;;;;;10345967;28;20296;-82
2022/03/12 10:10:41;;;;;;;2.70;2.50;;;;;;;;;;10342678;28;20227;-79
2022/03/12 10:15:43;;;;;;;4.95;2.28;;;;;;;;;;10359036;28;20767;-83
2022/03/12 10:20:44;;;;;;;2.65;2.42;;;;;;;;;;10370325;28;20227;-80
2022/03/12 10:25:46;;;;;;;2.85;2.70;;;;;;;;;;10348752;28;20287;-81
2022/03/12 10:30:47;;;;;;;2.45;2.25;;;;;;;;;;10342673;28;20569;-79
2022/03/12 10:35:48;;;;;;;3.10;2.58;;;;;;;;;;10346927;28;20193;-81
2022/03/12 10:40:49;;;;;;;2.10;1.80;;;;;;;;;;10347286;28;20594;-77
2022/03/12 10:45:53;;;;;;;2.60;2.30;;;;;;;;;;10340837;28;20931;-78
2022/03/12 10:50:55;;;;;;;2.58;2.38;;;;;;;;;;10345362;28;20256;-81
2022/03/12 10:55:56;;;;;;;2.20;2.10;;;;;;;;;;10340595;28;20216;-76
2022/03/12 11:00:59;;;;;;;3.38;2.13;;;;;;;;;;10342252;28;20567;-81
2022/03/12 11:06:02;;;;;;;3.10;2.97;;;;;;;;;;10338923;28;20365;-79
2022/03/12 11:11:11;;;;;;;3.15;2.85;;;;;;;;;;10341290;28;20196;-78
2022/03/12 11:16:20;;;;;;;3.38;2.92;;;;;;;;;;10342967;28;20260;-76
2022/03/12 11:21:37;;;;;;;2.53;2.42;;;;;;;;;;10339825;28;20234;-72
2022/03/12 11:26:46;;;;;;;3.17;2.97;;;;;;;;;;10339966;28;20532;-77
2022/03/12 11:31:51;;;;;;;2.40;2.20;;;;;;;;;;10346565;28;20212;-78
2022/03/12 11:36:55;;;;;;;3.88;3.42;;;;;;;;;;10342956;28;20200;-76
2022/03/12 11:42:04;;;;;;;2.30;2.20;;;;;;;;;;10340615;28;20248;-76
2022/03/12 11:47:06;;;;;;;2.90;2.72;;;;;;;;;;10339923;28;20220;-75
2022/03/12 11:52:07;;;;;;;2.60;2.40;;;;;;;;;;10338733;28;20201;-77
2022/03/12 11:57:09;;;;;;;3.05;2.90;;;;;;;;;;10377966;28;20211;-78
2022/03/12 12:02:25;;;;;;;2.75;2.60;;;;;;;;;;10341204;28;20286;-76
2022/03/12 12:07:30;;;;;;;4.63;2.40;;;;;;;;;;10334813;28;20204;-76
2022/03/12 12:12:32;;;;;;;2.55;2.35;;;;;;;;;;10343098;28;20200;-77
2022/03/12 12:17:33;;;;;;;2.17;2.10;;;;;;;;;;10334630;28;20209;-77
2022/03/12 12:22:34;;;;;;;3.50;3.30;;;;;;;;;;10340039;28;20270;-79
2022/03/12 12:27:41;;;;;;;4.22;2.53;;;;;;;;;;10343369;28;20292;-77
2022/03/12 12:32:48;;;;;;;2.63;2.53;;;;;;;;;;10345900;28;20236;-76
2022/03/12 12:37:57;;;;;;;2.33;2.10;;;;;;;;;;10344250;28;20598;-76
2022/03/12 12:42:59;;;;;;;2.20;2.20;;;;;;;;;;10346014;28;20221;-77
2022/03/12 12:48:27;;;;;;;2.38;2.28;;;;;;;;;;10347253;28;20260;-78
2022/03/12 12:53:29;;;;;;;2.50;2.40;;;;;;;;;;10328559;28;20209;-77
2022/03/12 12:58:46;;;;;;;3.05;2.92;;;;;;;;;;10341087;28;20236;-79
2022/03/12 13:03:50;;;;;;;2.33;2.22;;;;;;;;;;10341155;28;20306;-78
2022/03/12 13:08:51;;;;;;;3.42;2.55;;;;;;;;;;10343546;28;20212;-76
2022/03/12 13:13:56;;;;;;;2.63;2.25;;;;;;;;;;10340049;28;20196;-78
2022/03/12 13:18:57;;;;;;;2.42;2.33;;;;;;;;;;10337910;28;20287;-78
2022/03/12 13:23:59;;;;;;;2.45;1.92;;;;;;;;;;10338955;28;20775;-76
2022/03/12 13:29:08;;;;;;;2.72;2.63;;;;;;;;;;10344387;28;20236;-80
2022/03/12 13:34:10;;;;;;;1.75;1.70;;;;;;;;;;10341623;28;20687;-76
2022/03/12 13:39:12;;;;;;;1.80;1.80;;;;;;;;;;10340630;28;20220;-78
2022/03/12 13:44:14;;;;;;;1.80;1.70;;;;;;;;;;10343102;28;20253;-79
2022/03/12 13:49:16;;;;;;;3.72;2.42;;;;;;;;;;10339185;28;20208;-77
2022/03/12 13:54:18;;;;;;;2.35;2.15;;;;;;;;;;10341684;28;20755;-79
2022/03/12 13:59:27;;;;;;;3.03;2.47;;;;;;;;;;10348382;28;20602;-77
2022/03/12 14:04:29;;;;;;;2.08;1.98;;;;;;;;;;10342582;28;20222;-77
2022/03/12 14:09:30;;;;;;;2.25;2.08;;;;;;;;;;10341492;28;20219;-78
2022/03/12 14:14:31;;;;;;;2.80;2.40;;;;;;;;;;10339295;28;20201;-78
2022/03/12 14:19:35;;;;;;;1.90;1.75;;;;;;;;;;10334639;28;20205;-78
2022/03/12 14:24:39;;;;;;;2.78;1.98;;;;;;;;;;10336086;28;20226;-79
2022/03/12 14:29:42;;;;;;;2.13;2.03;;;;;;;;;;10333952;28;20668;-78
2022/03/12 14:34:44;;;;;;;2.63;2.45;;;;;;;;;;10327768;28;20231;-77
2022/03/12 14:39:47;;;;;;;2.65;1.83;;;;;;;;;;10331491;28;20233;-76
2022/03/12 14:44:50;;;;;;;1.67;1.58;;;;;;;;;;10335027;28;20783;-77
2022/03/12 14:49:52;;;;;;;1.65;1.55;;;;;;;;;;10331041;28;20204;-78
2022/03/12 14:54:55;;;;;;;2.08;1.98;;;;;;;;;;10332226;28;20220;-76
2022/03/12 14:59:57;;;;;;;2.10;2.00;;;;;;;;;;10329787;28;20212;-76
2022/03/12 15:04:58;;;;;;;2.53;2.33;;;;;;;;;;10331954;28;20225;-77
2022/03/12 15:10:09;;;;;;;3.33;1.80;;;;;;;;;;10343697;28;20718;-78
2022/03/12 15:15:26;;;;;;;2.17;2.08;;;;;;;;;;10337019;28;20693;-77
2022/03/12 15:20:34;;;;;;;2.85;2.70;;;;;;;;;;10339638;28;20220;-76
2022/03/12 15:25:42;;;;;;;2.35;2.20;;;;;;;;;;10338310;28;20208;-77
2022/03/12 15:30:47;;;;;;;2.38;2.28;;;;;;;;;;10332437;28;20216;-78
2022/03/12 15:35:48;;;;;;;2.60;2.50;;;;;;;;;;10331072;28;20232;-76
2022/03/12 15:40:49;;;;;;;4.55;3.90;;;;;;;;;;10334544;28;20240;-77
2022/03/12 15:45:50;;;;;;;2.97;2.85;;;;;;;;;;10336127;28;20695;-78
2022/03/12 15:50:51;;;;;;;3.85;3.55;;;;;;;;;;10333512;28;20200;-77
2022/03/12 15:55:53;;;;;;;3.30;3.17;;;;;;;;;;10334989;28;20609;-76
2022/03/12 16:00:56;;;;;;;8.00;3.47;;;;;;;;;;10334519;28;20222;-77
2022/03/12 16:05:57;;;;;;;3.83;3.42;;;;;;;;;;10336137;28;20208;-77
2022/03/12 16:10:59;;;;;;;3.50;3.13;;;;;;;;;;10336157;28;20216;-77
2022/03/12 16:16:00;;;;;;;5.03;3.92;;;;;;;;;;10336383;28;20200;-77
2022/03/12 16:21:03;;;;;;;4.10;3.85;;;;;;;;;;10330321;28;20214;-77
2022/03/12 16:26:04;;;;;;;5.85;3.30;;;;;;;;;;10329077;28;20201;-76
2022/03/12 16:31:07;;;;;;;3.88;3.60;;;;;;;;;;10339796;28;21872;-78
2022/03/12 16:36:08;;;;;;;3.60;3.40;;;;;;;;;;10335736;28;20201;-79
2022/03/12 16:41:09;;;;;;;2.70;2.60;;;;;;;;;;10339215;28;20569;-77
2022/03/12 16:46:18;;;;;;;3.45;3.15;;;;;;;;;;10334517;28;20223;-77
2022/03/12 16:51:19;;;;;;;4.20;3.38;;;;;;;;;;10342673;28;20208;-79
2022/03/12 16:56:20;;;;;;;3.83;3.60;;;;;;;;;;10339759;28;20221;-79
2022/03/12 17:01:21;;;;;;;3.55;3.38;;;;;;;;;;10346894;28;20286;-77
2022/03/12 17:06:23;;;;;;;4.82;3.20;;;;;;;;;;10347740;28;20282;-79
2022/03/12 17:11:25;;;;;;;4.53;4.10;;;;;;;;;;10350063;28;20204;-78
2022/03/12 17:16:28;;;;;;;4.70;3.65;;;;;;;;;;10347496;28;20212;-79
2022/03/12 17:21:29;;;;;;;7.72;5.82;;;;;;;;;;10349230;28;22072;-77
2022/03/12 17:26:30;;;;;;;4.78;4.40;;;;;;;;;;10352907;28;20204;-77
2022/03/12 17:31:31;;;;;;;5.00;4.03;;;;;;;;;;10377067;28;20212;-77
2022/03/12 17:36:33;;;;;;;4.95;4.63;;;;;;;;;;10343400;28;20196;-77
2022/03/12 17:41:36;;;;;;;7.05;4.60;;;;;;;;;;10349242;28;20327;-77
2022/03/12 17:46:37;;;;;;;4.78;4.47;;;;;;;;;;10347318;28;20207;-78
2022/03/12 17:51:41;;;;;;;4.63;4.20;;;;;;;;;;10346946;28;20633;-77
2022/03/12 17:56:42;;;;;;;5.45;4.90;;;;;;;;;;10344176;28;20644;-77
2022/03/12 18:01:44;;;;;;;4.88;4.57;;;;;;;;;;10345425;28;20216;-79
2022/03/12 18:06:45;;;;;;;5.63;5.03;;;;;;;;;;10344615;28;20212;-77
2022/03/12 18:11:47;;;;;;;6.47;5.82;;;;;;;;;;10343876;28;20243;-72
2022/03/12 18:16:51;;;;;;;7.95;6.05;;;;;;;;;;10344838;28;20239;-77
2022/03/12 18:21:52;;;;;;;9.43;5.18;;;;;;;;;;10336620;28;20603;-76
2022/03/12 18:26:53;;;;;;;10.00;5.30;;;;;;;;;;10341651;28;20200;-75
2022/03/12 18:31:56;;;;;;;5.65;5.20;;;;;;;;;;10338524;28;20213;-76
2022/03/12 18:36:57;;;;;;;6.32;5.72;;;;;;;;;;10340367;28;20228;-76
2022/03/12 18:42:00;;;;;;;9.07;6.07;;;;;;;;;;10337067;28;20255;-76
2022/03/12 18:47:01;;;;;;;9.27;6.28;;;;;;;;;;10330501;28;20213;-75
2022/03/12 18:52:02;;;;;;;6.20;5.68;;;;;;;;;;10337056;28;20208;-75
2022/03/12 18:57:04;;;;;;;6.53;5.43;;;;;;;;;;10335385;28;20680;-75
2022/03/12 19:02:06;;;;;;;6.60;6.00;;;;;;;;;;10338707;28;20227;-75
2022/03/12 19:07:08;;;;;;;7.53;5.30;;;;;;;;;;10343678;28;20208;-75
2022/03/12 19:12:11;;;;;;;5.95;5.45;;;;;;;;;;10340576;28;20204;-75
2022/03/12 19:17:12;;;;;;;5.03;4.53;;;;;;;;;;10342700;28;20208;-74
2022/03/12 19:22:13;;;;;;;5.60;5.10;;;;;;;;;;10345182;28;20719;-75
2022/03/12 19:27:14;;;;;;;8.00;5.97;;;;;;;;;;10338180;28;20196;-75
2022/03/12 19:32:19;;;;;;;6.22;5.43;;;;;;;;;;10340219;28;20302;-75
2022/03/12 19:37:22;;;;;;;5.35;4.85;;;;;;;;;;10339758;28;20258;-76
2022/03/12 19:42:23;;;;;;;5.38;4.97;;;;;;;;;;10346951;28;20259;-75
2022/03/12 19:47:24;;;;;;;4.93;4.40;;;;;;;;;;10341802;28;20286;-75
2022/03/12 19:52:25;;;;;;;8.05;6.43;;;;;;;;;;10337704;28;20591;-75
2022/03/12 19:57:26;;;;;;;9.25;6.20;;;;;;;;;;10336878;28;20323;-74
2022/03/12 20:02:27;;;;;;;9.27;6.45;;;;;;;;;;10338872;28;20223;-74
2022/03/12 20:07:28;;;;;;;6.78;5.35;;;;;;;;;;10336309;28;20207;-74
2022/03/12 20:12:29;;;;;;;6.47;5.88;;;;;;;;;;10337417;28;20201;-74
2022/03/12 20:17:31;;;;;;;5.70;5.20;;;;;;;;;;10333747;28;20578;-74
2022/03/12 20:22:33;;;;;;;9.07;5.13;;;;;;;;;;10329546;28;20219;-74
2022/03/12 20:27:34;;;;;;;5.93;5.32;;;;;;;;;;10339071;28;20202;-75
2022/03/12 20:32:35;;;;;;;7.15;5.70;;;;;;;;;;10342566;28;20220;-75
2022/03/12 20:37:36;;;;;;;7.15;6.45;;;;;;;;;;10342150;28;20204;-72
2022/03/12 20:42:37;;;;;;;8.48;7.07;;;;;;;;;;10345646;28;20660;-74
2022/03/12 20:47:39;;;;;;;9.02;6.70;;;;;;;;;;10339154;28;20200;-74
2022/03/12 20:52:40;;;;;;;12.20;6.53;;;;;;;;;;10345162;28;20212;-74
2022/03/12 20:57:42;;;;;;;14.30;9.65;;;;;;;;;;10346304;28;20672;-74
2022/03/12 21:02:44;;;;;;;13.93;8.93;;;;;;;;;;10344085;28;20231;-74
2022/03/12 21:07:46;;;;;;;17.73;11.95;;;;;;;;;;10347074;28;20288;-74
2022/03/12 21:12:47;;;;;;;16.45;10.95;;;;;;;;;;10340268;28;20639;-74
2022/03/12 21:17:50;;;;;;;18.23;12.23;;;;;;;;;;10339522;28;20210;-74
2022/03/12 21:22:51;;;;;;;6.53;5.32;;;;;;;;;;10333123;28;20217;-74
2022/03/12 21:27:53;;;;;;;8.35;5.38;;;;;;;;;;10334017;28;20462;-74
2022/03/12 21:32:54;;;;;;;9.32;5.57;;;;;;;;;;10336488;28;20749;-74
2022/03/12 21:37:57;;;;;;;7.20;5.70;;;;;;;;;;10333860;28;20672;-74
2022/03/12 21:43:05;;;;;;;6.22;5.63;;;;;;;;;;10338369;28;20259;-74
2022/03/12 21:48:07;;;;;;;10.77;5.90;;;;;;;;;;10363532;28;20646;-74
2022/03/12 21:53:08;;;;;;;5.75;4.70;;;;;;;;;;10337645;28;20219;-74
2022/03/12 21:58:09;;;;;;;8.35;6.28;;;;;;;;;;10337835;28;20223;-74
2022/03/12 22:03:10;;;;;;;7.43;6.60;;;;;;;;;;10337951;28;20212;-74
2022/03/12 22:08:11;;;;;;;6.43;5.68;;;;;;;;;;10334834;28;20201;-74
2022/03/12 22:13:15;;;;;;;8.27;5.72;;;;;;;;;;10333092;28;20204;-74
2022/03/12 22:18:18;;;;;;;6.88;5.47;;;;;;;;;;10334885;28;20209;-74
2022/03/12 22:23:19;;;;;;;6.60;5.80;;;;;;;;;;10328715;28;20229;-74
2022/03/12 22:28:20;;;;;;;8.45;5.93;;;;;;;;;;10334480;28;20243;-68
2022/03/12 22:33:23;;;;;;;10.07;6.97;;;;;;;;;;10336512;28;20227;-74
2022/03/12 22:38:26;;;;;;;11.80;6.03;;;;;;;;;;10335062;28;20208;-74
2022/03/12 22:43:28;;;;;;;8.57;6.47;;;;;;;;;;10328373;28;20221;-74
2022/03/12 22:48:29;;;;;;;9.30;6.88;;;;;;;;;;10337421;28;20205;-74
2022/03/12 22:53:30;;;;;;;7.82;6.25;;;;;;;;;;10336806;28;20203;-74
2022/03/12 22:58:32;;;;;;;10.93;6.18;;;;;;;;;;10336085;28;20208;-74
2022/03/12 23:08:55;;;;;;;7.65;5.93;;;;;;;;;;10338104;28;20204;-74
2022/03/12 23:14:00;;;;;;;8.40;6.40;;;;;;;;;;10331916;28;20212;-73
2022/03/12 23:19:04;;;;;;;10.70;6.60;;;;;;;;;;10335914;28;20213;-73
2022/03/12 23:24:07;;;;;;;7.63;6.00;;;;;;;;;;10332147;28;20216;-74
2022/03/12 23:29:11;;;;;;;10.70;6.60;;;;;;;;;;10331191;28;21072;-74
2022/03/12 23:34:12;;;;;;;7.82;6.03;;;;;;;;;;10332053;28;20216;-74
2022/03/12 23:39:14;;;;;;;7.93;5.93;;;;;;;;;;10330853;28;20700;-74
2022/03/12 23:44:15;;;;;;;10.48;6.20;;;;;;;;;;10329653;28;20223;-73
2022/03/12 23:49:17;;;;;;;6.60;5.15;;;;;;;;;;10333950;28;20208;-74
2022/03/12 23:54:20;;;;;;;6.68;5.43;;;;;;;;;;10327449;28;20608;-74
2022/03/12 23:59:25;;;;;;;11.45;5.70;;;;;;;;;;10323574;28;20770;-74
